Time;durP1;ratioP1;P1;durP2;ratioP2;P2;SDS_P1;SDS_P2;PMS_P1;PMS_P2;Temp;Humidity;BMP_temperature;BMP_pressure;BME280_temperature;BME280_humidity;BME280_pressure;Samples;Min_cycle;Max_cycle;Signal;HPM_P1;HPM_P2
2023/01/19 00:00:14;;;;;;;5.07;1.10;;;;;;;3.66;100.00;99859.47;5013112;28;20048;-60
2023/01/19 00:02:39;;;;;;;4.68;1.02;;;;;;;3.69;100.00;99871.53;5031550;28;20424;-61
2023/01/19 00:05:05;;;;;;;4.22;1.10;;;;;;;3.81;100.00;99869.56;5031378;28;20045;-61
2023/01/19 00:07:30;;;;;;;8.57;1.48;;;;;;;3.74;100.00;99867.97;5031776;28;20424;-61
2023/01/19 00:09:56;;;;;;;6.00;0.90;;;;;;;3.74;100.00;99862.75;5013673;28;20037;-61
2023/01/19 00:12:21;;;;;;;5.95;1.60;;;;;;;3.81;100.00;99876.50;5031342;28;20128;-62
2023/01/19 00:14:47;;;;;;;6.30;1.42;;;;;;;3.68;100.00;99868.06;5031426;28;20095;-62
2023/01/19 00:17:12;;;;;;;6.75;1.40;;;;;;;3.66;100.00;99880.28;5013881;28;20046;-62
2023/01/19 00:19:37;;;;;;;8.18;1.17;;;;;;;3.59;100.00;99883.88;5031403;28;20033;-62
2023/01/19 00:22:04;;;;;;;4.47;0.93;;;;;;;3.55;100.00;99890.03;5031550;28;20147;-61
2023/01/19 00:24:30;;;;;;;7.38;1.20;;;;;;;3.54;100.00;99884.84;5032583;28;20036;-60
2023/01/19 00:26:56;;;;;;;4.57;0.90;;;;;;;3.55;100.00;99889.19;5035533;28;20376;-61
2023/01/19 00:29:21;;;;;;;7.70;1.20;;;;;;;3.09;100.00;99811.16;5017638;28;20064;-60
2023/01/19 00:31:46;;;;;;;6.00;1.17;;;;;;;3.44;100.00;99878.13;5035177;28;20033;-61
2023/01/19 00:34:12;;;;;;;10.00;1.27;;;;;;;3.46;100.00;99879.81;5035049;28;20065;-60
2023/01/19 00:36:37;;;;;;;10.10;1.23;;;;;;;3.40;100.00;99892.91;5035632;28;20466;-60
2023/01/19 00:39:02;;;;;;;5.75;0.90;;;;;;;2.97;100.00;99829.56;5035284;28;20119;-62
2023/01/19 00:44:11;;;;;;;4.40;1.10;;;;;;;3.30;100.00;99899.16;5035254;28;20045;-63
2023/01/19 00:46:37;;;;;;;3.53;1.00;;;;;;;3.29;100.00;99903.53;5035340;28;20041;-62
2023/01/19 00:49:03;;;;;;;7.68;1.92;;;;;;;2.79;100.00;99842.00;5035002;28;20465;-62
2023/01/19 00:51:28;;;;;;;5.78;1.33;;;;;;;3.18;100.00;99900.22;5035012;28;20038;-61
2023/01/19 00:53:53;;;;;;;10.30;1.40;;;;;;;2.77;100.00;99829.94;5034933;28;20396;-60
2023/01/19 00:56:19;;;;;;;6.65;1.00;;;;;;;2.74;100.00;99822.19;5035026;28;20078;-60
2023/01/19 00:58:44;;;;;;;10.60;1.45;;;;;;;2.71;100.00;99812.69;5035055;28;20037;-62
2023/01/19 01:01:10;;;;;;;8.18;1.42;;;;;;;3.05;100.00;99871.88;5034691;28;20046;-60
2023/01/19 01:03:36;;;;;;;10.35;1.75;;;;;;;3.19;100.00;99908.91;5034600;28;20137;-60
2023/01/19 01:06:02;;;;;;;10.30;1.95;;;;;;;3.21;100.00;99913.19;5034613;28;20116;-60
2023/01/19 01:08:28;;;;;;;4.30;1.30;;;;;;;3.25;100.00;99922.66;5016879;28;20419;-62
2023/01/19 01:10:54;;;;;;;12.48;1.80;;;;;;;3.23;100.00;99920.97;5016944;28;20445;-60
2023/01/19 01:13:19;;;;;;;8.45;1.52;;;;;;;2.82;100.00;99843.69;5016618;28;20060;-61
2023/01/19 01:15:48;;;;;;;10.25;1.77;;;;;;;3.25;100.00;99929.59;5034420;28;20440;-60
2023/01/19 01:18:14;;;;;;;10.10;1.80;;;;;;;3.28;100.00;99942.56;5034491;28;20508;-61
2023/01/19 01:20:39;;;;;;;8.52;1.77;;;;;;;2.78;100.00;99894.00;5034414;28;20123;-62
2023/01/19 01:23:04;;;;;;;9.85;1.50;;;;;;;2.59;100.00;99896.03;5034124;28;20175;-62
2023/01/19 01:25:30;;;;;;;2.50;0.73;;;;;;;2.47;100.00;99900.53;5034233;28;20065;-62
2023/01/19 01:27:55;;;;;;;8.68;1.33;;;;;;;2.56;100.00;99955.81;5034313;28;20080;-61
2023/01/19 01:30:22;;;;;;;5.35;0.93;;;;;;;2.58;100.00;99968.78;5034170;28;20489;-60
2023/01/19 01:32:47;;;;;;;8.68;0.75;;;;;;;2.48;100.00;99969.81;5016479;28;20041;-60
2023/01/19 01:35:13;;;;;;;5.05;0.80;;;;;;;2.33;100.00;99957.88;5033766;28;20045;-60
2023/01/19 01:37:39;;;;;;;2.22;0.60;;;;;;;2.23;100.00;99951.94;5016544;28;20111;-59
2023/01/19 01:40:05;;;;;;;3.00;0.70;;;;;;;1.89;100.00;99901.34;5034041;28;20041;-61
2023/01/19 01:42:32;;;;;;;5.68;1.20;;;;;;;2.03;100.00;99925.38;5034228;28;20026;-62
2023/01/19 01:44:59;;;;;;;5.35;1.10;;;;;;;2.26;100.00;99983.06;5016099;28;20041;-62
2023/01/19 01:47:32;;;;;;;4.13;0.80;;;;;;;2.38;100.00;99987.22;5016556;28;20388;-61
2023/01/19 01:50:05;;;;;;;7.85;1.08;;;;;;;2.37;100.00;99985.50;5016325;28;20033;-61
2023/01/19 01:52:33;;;;;;;4.70;1.02;;;;;;;2.37;100.00;99988.09;5016237;28;20468;-60
2023/01/19 01:54:59;;;;;;;7.50;1.35;;;;;;;2.39;100.00;99990.69;5016107;28;20035;-61
2023/01/19 01:57:26;;;;;;;4.63;1.23;;;;;;;2.36;100.00;99978.63;5033646;28;20033;-61
2023/01/19 01:59:53;;;;;;;7.50;0.95;;;;;;;2.41;100.00;99999.31;5033791;28;20072;-59
2023/01/19 02:05:25;;;;;;;9.80;1.85;;;;;;;2.53;100.00;100006.97;5018878;28;20349;-60
2023/01/19 02:13:37;;;;;;;11.45;1.58;;;;;;;2.46;100.00;100026.09;5033103;28;20136;-62
2023/01/19 02:16:06;;;;;;;6.53;1.30;;;;;;;2.29;100.00;100018.50;5015727;28;20136;-62
2023/01/19 02:18:32;;;;;;;3.63;0.70;;;;;;;1.94;100.00;99992.09;5015866;28;20135;-62
2023/01/19 02:21:18;;;;;;;1.75;0.73;;;;;;;2.09;100.00;100029.13;5015652;28;20614;-62
2023/01/19 02:23:47;;;;;;;4.95;1.05;;;;;;;1.54;100.00;99944.97;5015328;28;20033;-62
2023/01/19 02:26:16;;;;;;;6.05;1.08;;;;;;;1.53;100.00;99956.19;5033302;28;20080;-61
2023/01/19 02:28:44;;;;;;;3.03;0.85;;;;;;;1.94;100.00;100008.53;5015456;28;20120;-61
2023/01/19 02:31:10;;;;;;;8.80;1.25;;;;;;;1.58;100.00;99946.63;5033558;28;20480;-62
2023/01/19 02:33:36;;;;;;;2.67;0.85;;;;;;;1.89;100.00;100002.53;5033278;28;20052;-61
2023/01/19 02:36:02;;;;;;;3.92;0.75;;;;;;;2.02;100.00;100004.09;5015506;28;20041;-62
2023/01/19 02:38:28;;;;;;;5.32;1.00;;;;;;;1.61;100.00;99915.47;5015152;28;20069;-62
2023/01/19 02:40:54;;;;;;;4.35;0.80;;;;;;;2.04;100.00;99998.91;5032218;28;20045;-62
2023/01/19 02:43:21;;;;;;;4.68;0.90;;;;;;;1.98;100.00;99989.47;5014419;28;20083;-60
2023/01/19 02:45:47;;;;;;;4.22;0.90;;;;;;;1.71;100.00;99953.44;5015338;28;20043;-60
2023/01/19 02:48:13;;;;;;;3.40;0.70;;;;;;;1.89;100.00;99986.97;5032064;28;20033;-62
2023/01/19 02:50:44;;;;;;;3.75;0.68;;;;;;;2.22;100.00;100043.69;5032852;28;20036;-61
2023/01/19 02:53:31;;;;;;;3.72;0.55;;;;;;;2.26;100.00;100015.94;5032751;28;20396;-62
2023/01/19 02:56:27;;;;;;;7.88;1.27;;;;;;;2.28;100.00;100026.34;5032907;28;20034;-62
2023/01/19 02:59:17;;;;;;;5.28;1.25;;;;;;;2.27;100.00;100030.66;5032461;28;20042;-61
2023/01/19 03:02:34;;;;;;;4.15;0.93;;;;;;;2.27;100.00;100038.44;5032861;28;20120;-61
2023/01/19 03:05:11;;;;;;;3.55;0.90;;;;;;;2.23;100.00;100041.94;4998498;28;20088;-62
2023/01/19 03:08:01;;;;;;;4.90;0.88;;;;;;;2.21;100.00;100054.09;5032664;28;20041;-63
2023/01/19 03:10:59;;;;;;;12.75;1.27;;;;;;;2.10;100.00;100030.84;5032288;28;20499;-63
2023/01/19 03:13:28;;;;;;;4.85;1.33;;;;;;;2.05;100.00;100032.63;5014606;28;20132;-67
2023/01/19 03:16:02;;;;;;;10.00;1.52;;;;;;;1.93;100.00;100029.28;5032315;28;20033;-65
2023/01/19 03:18:30;;;;;;;8.50;1.30;;;;;;;1.65;100.00;99987.22;5032159;28;20029;-65
2023/01/19 03:20:58;;;;;;;8.95;1.67;;;;;;;1.81;100.00;100021.66;5014545;28;20500;-65
2023/01/19 03:23:26;;;;;;;10.45;1.55;;;;;;;1.65;100.00;100003.66;5014606;28;20029;-66
2023/01/19 03:25:53;;;;;;;8.93;1.10;;;;;;;1.55;100.00;99985.56;4997902;28;20030;-66
2023/01/19 03:28:20;;;;;;;8.90;2.00;;;;;;;1.48;100.00;99974.41;5014425;28;20432;-67
2023/01/19 03:30:51;;;;;;;9.75;1.45;;;;;;;1.70;100.00;100021.75;5014055;28;20536;-65
2023/01/19 03:33:24;;;;;;;7.07;2.10;;;;;;;1.65;100.00;100007.97;5014066;28;20033;-65
2023/01/19 03:35:53;;;;;;;10.68;2.03;;;;;;;1.33;100.00;99946.03;5014776;28;20029;-66
2023/01/19 03:38:22;;;;;;;10.93;1.75;;;;;;;1.86;100.00;100038.91;5014526;28;21052;-65
2023/01/19 03:40:48;;;;;;;12.77;1.85;;;;;;;1.92;100.00;100045.75;5031770;28;20495;-63
2023/01/19 03:43:15;;;;;;;14.85;2.65;;;;;;;1.89;100.00;100045.78;5014049;28;20120;-63
2023/01/19 03:45:41;;;;;;;10.85;2.22;;;;;;;1.60;100.00;99976.03;5014170;28;20116;-62
2023/01/19 03:48:07;;;;;;;21.00;4.05;;;;;;;2.07;100.00;100030.88;4998083;28;20029;-60
2023/01/19 03:50:32;;;;;;;28.15;3.28;;;;;;;1.82;100.00;99974.91;5013947;28;20040;-62
2023/01/19 03:53:04;;;;;;;9.82;2.10;;;;;;;2.39;100.00;100053.91;4997703;28;20522;-60
2023/01/19 03:55:30;;;;;;;18.92;2.83;;;;;;;2.48;100.00;100039.94;5031562;28;20041;-61
2023/01/19 03:57:55;;;;;;;17.75;2.67;;;;;;;2.60;100.00;100055.34;5031658;28;20033;-60
2023/01/19 04:00:20;;;;;;;22.20;3.60;;;;;;;2.34;100.00;99995.06;5031429;28;20064;-61
2023/01/19 04:02:45;;;;;;;12.35;3.05;;;;;;;2.79;100.00;100059.44;5031990;28;20069;-61
2023/01/19 04:05:11;;;;;;;21.60;4.05;;;;;;;2.76;100.00;100033.50;5031542;28;20045;-61
2023/01/19 04:07:36;;;;;;;24.48;4.63;;;;;;;2.92;100.00;100058.38;5014001;28;20435;-61
2023/01/19 04:10:01;;;;;;;14.00;2.80;;;;;;;2.95;100.00;100073.09;5031532;28;20491;-61
2023/01/19 04:12:27;;;;;;;18.23;3.42;;;;;;;2.54;100.00;99993.94;5031365;28;20083;-61
2023/01/19 04:14:53;;;;;;;19.92;3.35;;;;;;;2.94;100.00;100058.38;5013858;28;20073;-62
2023/01/19 04:17:19;;;;;;;14.07;3.03;;;;;;;2.89;100.00;100052.38;5031704;28;20123;-62
2023/01/19 04:19:44;;;;;;;15.68;3.05;;;;;;;2.97;100.00;100066.13;5031894;28;20029;-61
2023/01/19 04:22:10;;;;;;;17.67;2.83;;;;;;;2.96;100.00;100062.66;5031654;28;20495;-62
2023/01/19 04:24:35;;;;;;;14.77;2.60;;;;;;;2.57;100.00;99996.50;5031631;28;20045;-62
2023/01/19 04:27:00;;;;;;;13.13;2.88;;;;;;;3.01;100.00;100063.44;5031446;28;20026;-61
2023/01/19 04:29:25;;;;;;;18.75;4.07;;;;;;;2.89;100.00;100054.97;5013908;28;20115;-61
2023/01/19 04:31:51;;;;;;;12.75;2.63;;;;;;;2.54;100.00;99996.53;5031293;28;20097;-62
2023/01/19 04:34:16;;;;;;;16.30;2.63;;;;;;;2.47;100.00;99965.47;5013564;28;20037;-62
2023/01/19 04:36:44;;;;;;;18.73;3.08;;;;;;;2.73;100.00;100016.22;5013736;28;20034;-62
2023/01/19 04:39:10;;;;;;;17.63;4.50;;;;;;;2.70;100.00;100002.38;5031501;28;20037;-61
2023/01/19 04:41:35;;;;;;;17.48;2.92;;;;;;;2.74;100.00;100002.31;5031051;28;20033;-62
2023/01/19 04:44:01;;;;;;;15.73;2.85;;;;;;;2.66;100.00;99998.09;5030956;28;20109;-61
2023/01/19 04:46:26;;;;;;;16.15;3.00;;;;;;;3.11;100.00;100080.66;5031404;28;20033;-61
2023/01/19 04:48:51;;;;;;;14.70;3.05;;;;;;;2.78;100.00;100039.50;5031564;28;20029;-62
2023/01/19 04:51:17;;;;;;;16.92;2.97;;;;;;;2.87;100.00;100057.59;5031327;28;20045;-62
2023/01/19 04:53:42;;;;;;;8.52;2.88;;;;;;;3.02;100.00;100098.97;5031335;28;20061;-61
2023/01/19 04:56:07;;;;;;;20.77;3.10;;;;;;;3.03;100.00;100094.66;5031135;28;20080;-60
2023/01/19 04:58:33;;;;;;;23.85;4.15;;;;;;;2.97;100.00;100087.78;5031315;28;20033;-61
2023/01/19 05:00:59;;;;;;;15.73;3.15;;;;;;;2.79;100.00;100062.03;5030956;28;20026;-63
2023/01/19 05:03:24;;;;;;;16.27;3.28;;;;;;;2.82;100.00;100075.00;5031059;28;20048;-62
2023/01/19 05:05:49;;;;;;;15.07;3.08;;;;;;;2.96;100.00;100096.47;5031269;28;20060;-61
2023/01/19 05:08:15;;;;;;;15.82;2.92;;;;;;;2.99;100.00;100108.56;5031160;28;20026;-62
2023/01/19 05:10:40;;;;;;;20.27;4.43;;;;;;;2.96;100.00;100099.06;5032233;28;20038;-61
2023/01/19 05:13:06;;;;;;;18.25;3.33;;;;;;;3.00;100.00;100099.88;5034509;28;20420;-61
2023/01/19 05:15:31;;;;;;;26.13;3.75;;;;;;;2.60;100.00;100043.22;5034518;28;20449;-61
2023/01/19 05:17:59;;;;;;;16.77;3.22;;;;;;;2.98;100.00;100107.69;5034432;28;20040;-60
2023/01/19 05:20:24;;;;;;;31.23;3.72;;;;;;;2.98;100.00;100106.84;5017130;28;20037;-63
2023/01/19 05:22:51;;;;;;;19.58;3.03;;;;;;;2.70;100.00;100057.81;5017022;28;20033;-62
2023/01/19 05:25:16;;;;;;;23.80;4.13;;;;;;;2.83;100.00;100098.34;5034617;28;20037;-62
2023/01/19 05:27:42;;;;;;;19.23;3.00;;;;;;;2.97;100.00;100118.13;5035058;28;20044;-61
2023/01/19 05:30:08;;;;;;;15.13;3.63;;;;;;;2.42;100.00;100038.28;5034068;28;20057;-61
2023/01/19 05:32:33;;;;;;;14.55;2.67;;;;;;;2.93;100.00;100121.63;5034251;28;20057;-63
2023/01/19 05:34:59;;;;;;;11.68;2.25;;;;;;;2.39;100.00;100032.25;5034236;28;20029;-62
2023/01/19 05:37:24;;;;;;;20.95;3.15;;;;;;;2.87;100.00;100127.75;5034238;28;20033;-61
2023/01/19 05:39:50;;;;;;;13.63;3.55;;;;;;;2.65;100.00;100114.19;5034000;28;20033;-61
2023/01/19 05:42:15;;;;;;;16.65;3.08;;;;;;;2.86;100.00;100143.41;5034234;28;20083;-63
2023/01/19 05:44:41;;;;;;;19.15;3.13;;;;;;;2.84;100.00;100141.66;5034264;28;20480;-61
2023/01/19 05:47:06;;;;;;;18.35;2.95;;;;;;;2.45;100.00;100078.94;5034065;28;20108;-61
2023/01/19 05:49:31;;;;;;;18.45;2.88;;;;;;;2.72;100.00;100133.16;5034261;28;20179;-61
2023/01/19 05:51:57;;;;;;;12.93;2.63;;;;;;;2.79;100.00;100147.81;4999836;28;20123;-61
2023/01/19 05:54:22;;;;;;;13.00;2.60;;;;;;;2.72;100.00;100149.59;5032909;28;20485;-62
2023/01/19 05:56:47;;;;;;;27.67;3.60;;;;;;;2.73;100.00;100147.88;5033742;28;20588;-62
2023/01/19 05:59:14;;;;;;;14.00;2.63;;;;;;;2.28;100.00;100081.69;5015905;28;20029;-61
2023/01/19 06:01:40;;;;;;;18.60;3.67;;;;;;;2.37;100.00;100097.19;5016371;28;20033;-62
2023/01/19 06:04:06;;;;;;;14.85;2.78;;;;;;;2.38;100.00;100098.03;5016093;28;20045;-61
2023/01/19 06:06:31;;;;;;;13.73;3.08;;;;;;;2.69;100.00;100151.38;5033403;28;20033;-62
2023/01/19 06:08:56;;;;;;;18.25;3.97;;;;;;;2.28;100.00;100079.09;5033675;28;20033;-61
2023/01/19 06:11:22;;;;;;;15.85;2.85;;;;;;;2.40;100.00;100106.66;5033488;28;20037;-61
2023/01/19 06:13:47;;;;;;;13.40;2.78;;;;;;;2.84;100.00;100182.38;5033660;28;20045;-61
2023/01/19 06:16:13;;;;;;;15.45;3.83;;;;;;;2.95;100.00;100188.31;5033560;28;20133;-61
2023/01/19 06:18:39;;;;;;;13.07;3.25;;;;;;;2.55;100.00;100094.38;5033527;28;20065;-62
2023/01/19 06:21:06;;;;;;;16.02;2.45;;;;;;;3.09;100.00;100177.75;5015858;28;20056;-61
2023/01/19 06:23:32;;;;;;;13.68;2.70;;;;;;;2.68;100.00;100106.38;5015381;28;20496;-60
2023/01/19 06:25:58;;;;;;;11.30;2.63;;;;;;;3.09;100.00;100172.56;5033534;28;20098;-62
2023/01/19 06:28:24;;;;;;;15.27;2.45;;;;;;;2.76;100.00;100130.50;5015197;28;20033;-61
2023/01/19 06:30:50;;;;;;;5.97;1.60;;;;;;;3.06;100.00;100177.81;5033376;28;20393;-60
2023/01/19 06:33:16;;;;;;;7.22;1.92;;;;;;;2.74;100.00;100113.22;5033125;28;20048;-61
2023/01/19 06:35:43;;;;;;;13.40;2.63;;;;;;;2.80;100.00;100126.97;5015595;28;20025;-61
2023/01/19 06:38:08;;;;;;;12.25;2.35;;;;;;;3.16;100.00;100208.00;5014728;28;20087;-61
2023/01/19 06:40:33;;;;;;;9.43;2.63;;;;;;;3.16;100.00;100208.00;5015245;28;20424;-62
2023/01/19 06:42:59;;;;;;;13.90;2.95;;;;;;;3.14;100.00;100212.38;5031314;28;20037;-61
2023/01/19 06:45:24;;;;;;;19.80;3.15;;;;;;;2.75;100.00;100135.72;5032707;28;20497;-62
2023/01/19 06:47:49;;;;;;;12.52;2.15;;;;;;;3.22;100.00;100211.38;5033180;28;20120;-61
2023/01/19 06:50:15;;;;;;;15.50;3.00;;;;;;;3.29;100.00;100235.59;5032662;28;20033;-62
2023/01/19 06:52:43;;;;;;;10.15;2.55;;;;;;;3.28;100.00;100221.72;5032694;28;20111;-61
2023/01/19 06:55:09;;;;;;;6.60;2.22;;;;;;;3.17;100.00;100215.78;5032289;28;20043;-61
2023/01/19 06:57:37;;;;;;;11.63;2.40;;;;;;;3.41;100.00;100232.84;5014984;28;20041;-62
2023/01/19 07:00:06;;;;;;;16.25;2.83;;;;;;;3.01;100.00;100150.97;5032050;28;20033;-63
2023/01/19 07:02:35;;;;;;;11.85;2.10;;;;;;;3.48;100.00;100236.19;5032691;28;20044;-61
2023/01/19 07:05:00;;;;;;;11.07;2.90;;;;;;;3.08;100.00;100169.09;5031992;28;20099;-60
2023/01/19 07:07:26;;;;;;;13.13;1.73;;;;;;;3.48;100.00;100263.06;5032571;28;20469;-60
2023/01/19 07:09:51;;;;;;;13.68;2.22;;;;;;;3.21;100.00;100207.06;5032327;28;20457;-61
2023/01/19 07:12:17;;;;;;;12.13;2.40;;;;;;;3.01;100.00;100172.63;5031838;28;20049;-61
2023/01/19 07:14:42;;;;;;;13.07;2.60;;;;;;;3.08;100.00;100187.31;5032058;28;20064;-60
2023/01/19 07:17:08;;;;;;;10.38;2.30;;;;;;;3.24;100.00;100237.41;5031656;28;20465;-60
2023/01/19 07:19:34;;;;;;;9.52;2.05;;;;;;;3.42;100.00;100270.97;5032173;28;20344;-60
2023/01/19 07:22:00;;;;;;;13.23;3.53;;;;;;;2.88;100.00;100189.28;5014671;28;20503;-61
2023/01/19 07:24:25;;;;;;;10.55;2.83;;;;;;;2.95;100.00;100203.06;5031514;28;20440;-61
2023/01/19 07:26:51;;;;;;;11.52;2.15;;;;;;;2.98;100.00;100214.28;5032214;28;20029;-61
2023/01/19 07:29:16;;;;;;;9.38;1.98;;;;;;;3.24;100.00;100273.81;5013983;28;20088;-61
2023/01/19 07:31:41;;;;;;;11.32;2.85;;;;;;;2.95;100.00;100216.06;5031485;28;20150;-62
2023/01/19 07:34:07;;;;;;;12.80;2.08;;;;;;;3.05;100.00;100228.06;5031811;28;20029;-61
2023/01/19 07:36:32;;;;;;;13.63;2.65;;;;;;;3.01;100.00;100226.38;5031844;28;20061;-60
2023/01/19 07:38:57;;;;;;;7.93;1.75;;;;;;;2.89;100.00;100216.97;5031824;28;20123;-61
2023/01/19 07:41:23;;;;;;;7.45;1.63;;;;;;;3.21;100.00;100285.06;5032036;28;20037;-62
2023/01/19 07:43:50;;;;;;;12.57;2.33;;;;;;;2.70;100.00;100229.31;5030977;28;20034;-61
2023/01/19 07:46:15;;;;;;;12.80;2.65;;;;;;;3.07;100.00;100301.72;4994097;28;20577;-64
2023/01/19 07:48:43;;;;;;;12.40;2.10;;;;;;;2.62;100.00;100241.53;5013507;28;20053;-62
2023/01/19 07:51:10;;;;;;;10.30;2.45;;;;;;;2.53;100.00;100236.44;5012337;28;20168;-61
2023/01/19 07:53:36;;;;;;;10.75;2.38;;;;;;;2.77;100.00;100315.91;5014101;28;20026;-62
2023/01/19 07:56:04;;;;;;;11.52;2.00;;;;;;;2.51;100.00;100268.50;5031849;28;20041;-61
2023/01/19 07:58:30;;;;;;;12.63;2.38;;;;;;;2.65;100.00;100300.41;5031745;28;20076;-62
2023/01/19 08:00:55;;;;;;;10.02;1.85;;;;;;;2.42;100.00;100277.22;5030865;28;20492;-61
2023/01/19 08:03:21;;;;;;;9.38;2.10;;;;;;;2.72;100.00;100325.44;5013570;28;20037;-62
2023/01/19 08:05:51;;;;;;;9.35;1.60;;;;;;;2.21;100.00;100238.44;4997479;28;20033;-63
2023/01/19 08:08:17;;;;;;;16.50;3.57;;;;;;;2.81;100.00;100344.44;5013927;28;20447;-60
2023/01/19 08:10:42;;;;;;;8.15;1.98;;;;;;;2.41;100.00;100274.63;5013597;28;20288;-61
2023/01/19 08:13:08;;;;;;;12.55;2.30;;;;;;;2.44;100.00;100272.00;5012024;28;20049;-62
2023/01/19 08:15:33;;;;;;;12.27;1.92;;;;;;;2.93;100.00;100356.44;5030922;28;20033;-60
2023/01/19 08:18:00;;;;;;;13.55;2.65;;;;;;;2.92;100.00;100341.72;5031262;28;20060;-62
2023/01/19 08:20:26;;;;;;;10.05;2.50;;;;;;;2.97;100.00;100370.28;4996255;28;20033;-52
2023/01/19 08:22:58;;;;;;;10.07;2.05;;;;;;;2.90;100.00;100359.06;5030993;28;20136;-57
2023/01/19 08:25:34;;;;;;;14.23;1.88;;;;;;;2.35;100.00;100277.28;5031584;28;20029;-55
2023/01/19 08:28:00;;;;;;;9.75;2.33;;;;;;;2.75;100.00;100375.66;5032438;28;20026;-57
2023/01/19 08:30:26;;;;;;;9.27;2.42;;;;;;;2.71;100.00;100362.72;5013636;28;20049;-58
2023/01/19 08:33:02;;;;;;;9.65;2.65;;;;;;;2.65;100.00;100365.38;5031614;28;20087;-57
2023/01/19 08:35:30;;;;;;;11.23;1.75;;;;;;;2.15;100.00;100296.47;5014823;28;20033;-58
2023/01/19 08:37:59;;;;;;;7.50;1.83;;;;;;;2.51;100.00;100372.41;5012389;28;20034;-57
2023/01/19 08:40:25;;;;;;;9.77;1.73;;;;;;;1.35;100.00;100175.03;5031583;28;20029;-56
2023/01/19 08:42:50;;;;;;;12.93;2.13;;;;;;;2.15;100.00;100303.41;5031553;28;20164;-56
2023/01/19 08:45:16;;;;;;;12.18;2.10;;;;;;;2.59;100.00;100376.69;5031962;28;20389;-57
2023/01/19 08:47:41;;;;;;;7.40;1.77;;;;;;;2.61;100.00;100381.84;5034820;28;20035;-55
2023/01/19 08:50:07;;;;;;;15.13;2.35;;;;;;;2.59;100.00;100381.88;5016870;28;20033;-56
2023/01/19 08:52:32;;;;;;;6.07;1.60;;;;;;;2.14;100.00;100304.25;5034888;28;20125;-57
2023/01/19 08:54:59;;;;;;;6.68;1.88;;;;;;;2.31;100.00;100356.09;5016282;28;20034;-57
2023/01/19 08:57:26;;;;;;;10.80;1.58;;;;;;;2.11;100.00;100322.44;5035095;28;20477;-57
2023/01/19 08:59:51;;;;;;;7.63;1.50;;;;;;;2.53;100.00;100392.31;5035049;28;20039;-57
2023/01/19 09:02:17;;;;;;;7.05;1.80;;;;;;;2.12;100.00;100321.59;5034658;28;20033;-56
2023/01/19 09:04:42;;;;;;;4.88;1.90;;;;;;;2.16;100.00;100315.53;5034963;28;20041;-56
2023/01/19 09:07:07;;;;;;;6.65;1.58;;;;;;;2.65;100.00;100393.94;5035132;28;20036;-55
2023/01/19 09:09:36;;;;;;;9.30;2.30;;;;;;;2.22;100.00;100325.84;5035112;28;20065;-56
2023/01/19 09:12:02;;;;;;;11.40;1.38;;;;;;;2.56;100.00;100374.09;5016985;28;20042;-55
2023/01/19 09:14:27;;;;;;;7.80;1.90;;;;;;;2.66;100.00;100403.44;5034409;28;20061;-56
2023/01/19 09:16:55;;;;;;;8.40;1.73;;;;;;;2.69;100.00;100403.44;5034007;28;20040;-57
2023/01/19 09:19:20;;;;;;;6.57;1.80;;;;;;;2.72;100.00;100406.88;5016788;28;20511;-59
2023/01/19 09:21:46;;;;;;;8.55;1.88;;;;;;;2.79;100.00;100410.28;5034783;28;20030;-58
2023/01/19 09:24:11;;;;;;;10.05;2.42;;;;;;;2.77;100.00;100407.69;5034515;28;20449;-58
2023/01/19 09:26:38;;;;;;;6.75;1.80;;;;;;;2.78;100.00;100405.97;5017115;28;20033;-55
2023/01/19 09:29:03;;;;;;;9.23;2.20;;;;;;;2.83;100.00;100417.22;5033219;28;20047;-56
2023/01/19 09:31:28;;;;;;;14.57;2.10;;;;;;;2.51;100.00;100354.22;5034439;28;20120;-58
2023/01/19 09:33:54;;;;;;;6.07;2.03;;;;;;;2.94;100.00;100410.19;5034456;28;20045;-58
2023/01/19 09:36:19;;;;;;;9.77;1.85;;;;;;;2.96;100.00;100405.81;5033477;28;20476;-56
2023/01/19 09:38:44;;;;;;;10.35;1.48;;;;;;;3.14;100.00;100430.81;5033484;28;20041;-58
2023/01/19 09:41:20;;;;;;;8.32;1.33;;;;;;;3.11;100.00;100408.28;5034459;28;20064;-57
2023/01/19 09:43:59;;;;;;;5.18;1.58;;;;;;;2.91;100.00;100367.75;5016787;28;20472;-55
2023/01/19 09:46:35;;;;;;;7.90;1.38;;;;;;;3.39;100.00;100459.16;5033744;28;20034;-57
2023/01/19 09:49:03;;;;;;;5.60;1.48;;;;;;;3.38;100.00;100454.00;5016628;28;20021;-56
2023/01/19 09:51:38;;;;;;;5.05;1.85;;;;;;;3.29;100.00;100443.69;5016350;28;20041;-56
2023/01/19 09:54:06;;;;;;;14.13;1.80;;;;;;;3.41;100.00;100462.63;5016304;28;20041;-54
2023/01/19 09:56:32;;;;;;;6.28;1.38;;;;;;;3.00;100.00;100401.47;5033410;28;20547;-56
2023/01/19 09:58:58;;;;;;;7.35;1.98;;;;;;;2.96;100.00;100392.81;5034078;28;20037;-57
2023/01/19 10:01:39;;;;;;;4.18;1.30;;;;;;;3.42;100.00;100464.34;5016443;28;20034;-54
2023/01/19 10:04:29;;;;;;;8.63;1.48;;;;;;;3.47;100.00;100472.13;5034001;28;20041;-56
2023/01/19 10:07:05;;;;;;;7.10;1.00;;;;;;;3.48;100.00;100470.38;5034213;28;20041;-58
2023/01/19 10:09:36;;;;;;;3.63;1.10;;;;;;;3.15;100.00;100402.16;5000323;28;20476;-57
2023/01/19 10:12:12;;;;;;;5.10;1.83;;;;;;;3.63;100.00;100468.47;5033285;28;20052;-56
2023/01/19 10:15:10;;;;;;;6.82;1.40;;;;;;;3.73;100.00;100488.34;5015990;28;20496;-54
2023/01/19 10:17:54;;;;;;;4.53;0.93;;;;;;;3.47;100.00;100420.09;4984328;28;20049;-55
2023/01/19 10:20:26;;;;;;;6.45;1.30;;;;;;;3.82;100.00;100493.44;5015923;28;20472;-55
2023/01/19 10:22:53;;;;;;;7.72;1.20;;;;;;;3.44;100.00;100417.53;5015787;28;20120;-56
2023/01/19 10:25:22;;;;;;;8.60;1.40;;;;;;;3.79;100.00;100484.81;5033278;28;20490;-58
2023/01/19 10:27:47;;;;;;;6.97;1.40;;;;;;;3.48;100.00;100427.00;5015933;28;20053;-56
2023/01/19 10:30:24;;;;;;;4.05;1.13;;;;;;;3.43;100.00;100426.19;5033330;28;20123;-57
2023/01/19 10:32:50;;;;;;;6.82;1.35;;;;;;;3.76;100.00;100498.72;5015676;28;20404;-56
2023/01/19 10:35:22;;;;;;;2.88;0.85;;;;;;;3.52;100.00;100453.84;5033171;28;20124;-54
2023/01/19 10:37:48;;;;;;;4.07;1.25;;;;;;;3.54;100.00;100441.69;5033203;28;20034;-57
2023/01/19 10:40:28;;;;;;;4.72;1.05;;;;;;;3.92;100.00;100491.59;5015519;28;20116;-56
2023/01/19 10:42:55;;;;;;;6.80;1.85;;;;;;;4.00;100.00;100510.59;5015681;28;20384;-55
2023/01/19 10:45:23;;;;;;;6.78;1.27;;;;;;;3.53;100.00;100420.03;5032947;28;20033;-55
2023/01/19 10:47:49;;;;;;;2.35;1.00;;;;;;;3.53;100.00;100412.22;5015290;28;20061;-54
2023/01/19 10:50:36;;;;;;;4.65;1.30;;;;;;;3.96;100.00;100494.19;4998727;28;20492;-57
2023/01/19 10:53:04;;;;;;;3.08;1.05;;;;;;;3.80;100.00;100470.91;5032660;28;20123;-57
2023/01/19 10:55:30;;;;;;;3.78;1.10;;;;;;;3.42;100.00;100434.88;5015520;28;20037;-58
2023/01/19 10:57:57;;;;;;;3.15;1.15;;;;;;;3.68;100.00;100494.44;5033259;28;20041;-53
2023/01/19 11:00:39;;;;;;;6.65;1.20;;;;;;;2.87;100.00;100381.63;5015197;28;20047;-57
2023/01/19 11:03:21;;;;;;;5.75;1.20;;;;;;;3.64;100.00;100496.25;5014946;28;20033;-55
2023/01/19 11:05:47;;;;;;;4.70;1.23;;;;;;;3.66;100.00;100502.28;5032920;28;20041;-54
2023/01/19 11:08:21;;;;;;;5.80;1.33;;;;;;;3.81;100.00;100520.38;4997877;28;20088;-53
2023/01/19 11:10:52;;;;;;;4.15;1.40;;;;;;;3.64;100.00;100438.13;5032491;28;20037;-57
2023/01/19 11:13:17;;;;;;;3.87;1.60;;;;;;;3.90;100.00;100444.78;4998097;28;20069;-55
2023/01/19 11:16:24;;;;;;;3.22;1.20;;;;;;;4.43;100.00;100511.84;5032017;28;20124;-57
2023/01/19 11:18:54;;;;;;;5.35;1.58;;;;;;;4.18;100.00;100444.41;5014028;28;20472;-57
2023/01/19 11:21:25;;;;;;;5.50;1.02;;;;;;;4.17;100.00;100432.28;4997987;28;20030;-57
2023/01/19 11:23:53;;;;;;;8.45;1.40;;;;;;;4.54;100.00;100509.09;5014821;28;20037;-58
2023/01/19 11:26:51;;;;;;;2.58;1.00;;;;;;;4.45;100.00;100512.69;5032200;28;20112;-54
2023/01/19 11:29:24;;;;;;;3.40;0.98;;;;;;;3.90;100.00;100436.09;5031465;28;20107;-55
2023/01/19 11:31:50;;;;;;;4.05;1.33;;;;;;;4.40;100.00;100518.84;5014550;28;20057;-52
2023/01/19 11:34:33;;;;;;;4.22;1.27;;;;;;;4.45;100.00;100532.66;4998098;28;20456;-53
2023/01/19 11:37:04;;;;;;;2.67;1.20;;;;;;;4.38;100.00;100499.72;5014478;28;20447;-57
2023/01/19 11:39:45;;;;;;;5.13;1.50;;;;;;;3.93;100.00;100429.09;5014348;28;20034;-55